createdAt,value
2023-07-15T00:01:08.238Z,27.31
2023-07-15T00:02:11.252Z,27.36
2023-07-15T00:03:14.752Z,27.36
2023-07-15T00:04:16.759Z,27.31
2023-07-15T00:05:21.813Z,27.33
2023-07-15T00:06:25.394Z,27.36
2023-07-15T00:07:26.983Z,27.38
2023-07-15T00:08:29.034Z,27.35
2023-07-15T00:09:31.299Z,27.32
2023-07-15T00:10:38.287Z,27.36
2023-07-15T00:11:45.406Z,27.40
2023-07-15T00:12:47.210Z,27.41
2023-07-15T00:13:48.768Z,27.46
2023-07-15T00:14:51.221Z,27.49
2023-07-15T00:15:54.622Z,27.54
2023-07-15T00:16:57.007Z,27.54
2023-07-15T00:17:58.674Z,27.46
2023-07-15T00:19:00.410Z,27.37
2023-07-15T00:20:02.546Z,27.36
2023-07-15T00:21:16.693Z,27.19
2023-07-15T00:22:18.266Z,27.17
2023-07-15T00:23:22.623Z,27.21
2023-07-15T00:24:24.948Z,27.26
2023-07-15T00:25:26.796Z,27.27
2023-07-15T00:26:31.249Z,27.29
2023-07-15T00:27:35.236Z,27.31
2023-07-15T00:28:37.610Z,27.29
2023-07-15T00:29:40.210Z,27.29
2023-07-15T00:30:42.118Z,27.11
2023-07-15T00:31:45.347Z,26.74
2023-07-15T00:32:49.226Z,26.45
2023-07-15T00:33:50.963Z,26.19
2023-07-15T00:34:52.572Z,26.06
2023-07-15T00:35:54.280Z,26.06
2023-07-15T00:36:55.957Z,26.01
2023-07-15T00:37:59.918Z,25.96
2023-07-15T00:39:01.536Z,25.94
2023-07-15T00:40:05.109Z,25.94
2023-07-15T00:41:13.616Z,25.93
2023-07-15T00:42:21.018Z,25.79
2023-07-15T00:43:57.701Z,25.69
2023-07-15T00:44:59.132Z,25.67
2023-07-15T00:46:19.446Z,25.59
2023-07-15T00:47:40.840Z,25.47
2023-07-15T00:48:52.024Z,25.41
2023-07-15T00:49:54.208Z,25.32
2023-07-15T00:50:55.806Z,25.29
2023-07-15T00:52:10.964Z,25.29
2023-07-15T00:53:13.614Z,25.29
2023-07-15T00:54:15.651Z,25.26
2023-07-15T00:55:17.320Z,25.23
2023-07-15T00:56:19.081Z,25.19
2023-07-15T00:57:22.742Z,25.20
2023-07-15T00:58:24.522Z,25.15
2023-07-15T00:59:26.306Z,25.15
2023-07-15T01:00:28.175Z,25.10
2023-07-15T01:01:30.787Z,25.16
2023-07-15T01:02:32.601Z,25.19
2023-07-15T01:03:34.398Z,25.16
2023-07-15T01:04:36.761Z,25.17
2023-07-15T01:05:39.675Z,25.20
2023-07-15T01:06:43.020Z,25.29
2023-07-15T01:07:44.631Z,25.31
2023-07-15T01:08:46.172Z,25.39
2023-07-15T01:09:48.563Z,25.47
2023-07-15T01:10:50.503Z,25.42
2023-07-15T01:11:52.177Z,25.42
2023-07-15T01:12:53.991Z,25.35
2023-07-15T01:13:55.601Z,25.30
2023-07-15T01:14:57.173Z,25.30
2023-07-15T01:15:58.791Z,25.30
2023-07-15T01:17:00.460Z,25.34
2023-07-15T01:18:02.177Z,25.34
2023-07-15T01:19:06.547Z,25.44
2023-07-15T01:20:08.706Z,25.52
2023-07-15T01:21:12.266Z,25.57
2023-07-15T01:22:14.220Z,25.59
2023-07-15T01:23:15.788Z,25.67
2023-07-15T01:24:19.072Z,25.68
2023-07-15T01:25:20.772Z,25.65
2023-07-15T01:26:22.420Z,25.66
2023-07-15T01:27:24.048Z,25.70
2023-07-15T01:28:25.729Z,25.74
2023-07-15T01:29:27.407Z,25.74
2023-07-15T01:30:30.712Z,25.69
2023-07-15T01:31:33.312Z,25.66
2023-07-15T01:32:34.966Z,25.68
2023-07-15T01:33:36.610Z,25.75
2023-07-15T01:34:38.245Z,25.74
2023-07-15T01:35:39.800Z,25.63
2023-07-15T01:36:41.452Z,25.53
2023-07-15T01:37:43.052Z,25.54
2023-07-15T01:38:44.619Z,25.52
2023-07-15T01:39:48.627Z,25.62
2023-07-15T01:40:50.297Z,25.58
2023-07-15T01:41:51.868Z,25.52
2023-07-15T01:42:53.508Z,25.55
2023-07-15T01:43:55.248Z,25.51
2023-07-15T01:44:56.871Z,25.40
2023-07-15T01:45:59.229Z,25.39
2023-07-15T01:47:01.432Z,25.40
2023-07-15T01:48:03.445Z,25.33
2023-07-15T01:49:05.210Z,25.23
2023-07-15T01:50:07.161Z,25.12
2023-07-15T01:51:08.802Z,25.08
2023-07-15T01:52:10.388Z,25.07
2023-07-15T01:53:12.018Z,25.07
2023-07-15T01:54:13.675Z,25.00
2023-07-15T01:55:15.608Z,24.93
2023-07-15T01:56:17.217Z,24.88
2023-07-15T01:57:18.786Z,24.85
2023-07-15T01:58:21.962Z,24.88
2023-07-15T01:59:23.566Z,24.86
2023-07-15T02:00:25.202Z,24.90
2023-07-15T02:01:28.057Z,25.02
2023-07-15T02:02:30.557Z,25.17
2023-07-15T02:03:32.263Z,25.28
2023-07-15T02:04:34.094Z,25.39
2023-07-15T02:05:35.773Z,25.43
2023-07-15T02:06:37.555Z,25.48
2023-07-15T02:07:39.445Z,25.53
2023-07-15T02:08:41.099Z,25.62
2023-07-15T02:09:42.920Z,25.64
2023-07-15T02:10:48.439Z,25.67
2023-07-15T02:11:50.399Z,25.73
2023-07-15T02:12:52.061Z,25.75
2023-07-15T02:13:53.689Z,25.78
2023-07-15T02:14:55.730Z,25.77
2023-07-15T02:15:57.280Z,25.78
2023-07-15T02:16:59.440Z,25.76
2023-07-15T02:18:01.189Z,25.78
2023-07-15T02:19:03.816Z,25.76
2023-07-15T02:20:07.524Z,25.77
2023-07-15T02:21:10.341Z,25.77
2023-07-15T02:22:11.939Z,25.65
2023-07-15T02:23:13.562Z,25.63
2023-07-15T02:24:15.249Z,25.68
2023-07-15T02:25:17.807Z,25.66
2023-07-15T02:26:19.645Z,25.64
2023-07-15T02:27:21.235Z,25.66
2023-07-15T02:28:27.651Z,25.71
2023-07-15T02:29:29.194Z,25.71
2023-07-15T02:30:31.367Z,25.67
2023-07-15T02:31:33.026Z,25.66
2023-07-15T02:32:42.591Z,25.62
2023-07-15T02:33:44.448Z,25.59
2023-07-15T02:34:46.022Z,25.62
2023-07-15T02:35:47.692Z,25.66
2023-07-15T02:36:49.400Z,25.71
2023-07-15T02:37:51.064Z,25.70
2023-07-15T02:38:52.660Z,25.72
2023-07-15T02:39:54.288Z,25.71
2023-07-15T02:40:56.443Z,25.70
2023-07-15T02:41:58.037Z,25.68
2023-07-15T02:42:59.658Z,25.69
2023-07-15T02:44:01.267Z,25.72
2023-07-15T02:45:07.359Z,25.72
2023-07-15T02:46:09.151Z,25.74
2023-07-15T02:47:10.766Z,25.80
2023-07-15T02:48:12.908Z,25.87
2023-07-15T02:49:14.533Z,25.95
2023-07-15T02:50:16.148Z,25.99
2023-07-15T02:51:18.505Z,26.00
2023-07-15T02:52:20.081Z,26.00
2023-07-15T02:53:21.798Z,26.02
2023-07-15T02:54:23.446Z,26.06
2023-07-15T02:55:26.327Z,26.05
2023-07-15T02:56:28.130Z,26.09
2023-07-15T02:57:29.905Z,26.12
2023-07-15T02:58:31.494Z,26.15
2023-07-15T02:59:34.940Z,26.17
2023-07-15T03:00:39.292Z,26.21
2023-07-15T03:01:40.849Z,26.25
2023-07-15T03:02:46.119Z,26.28
2023-07-15T03:03:47.778Z,26.32
2023-07-15T03:04:50.047Z,26.32
2023-07-15T03:05:52.363Z,26.30
2023-07-15T03:06:56.667Z,26.31
2023-07-15T03:07:58.307Z,26.33
2023-07-15T03:09:00.167Z,26.34
2023-07-15T03:10:02.046Z,26.36
2023-07-15T03:11:07.467Z,26.37
2023-07-15T03:12:13.188Z,26.38
2023-07-15T03:13:14.887Z,26.40
2023-07-15T03:14:16.511Z,26.40
2023-07-15T03:15:18.603Z,26.43
2023-07-15T03:16:23.511Z,26.40
2023-07-15T03:17:25.358Z,26.38
2023-07-15T03:18:27.601Z,26.38
2023-07-15T03:19:31.411Z,26.29
2023-07-15T03:20:32.994Z,26.07
2023-07-15T03:21:34.593Z,25.86
2023-07-15T03:22:36.204Z,25.68
2023-07-15T03:23:37.830Z,25.59
2023-07-15T03:24:39.537Z,25.42
2023-07-15T03:25:41.132Z,25.28
2023-07-15T03:26:42.773Z,25.02
2023-07-15T03:27:44.374Z,24.69
2023-07-15T03:28:45.965Z,24.44
2023-07-15T03:29:50.246Z,24.29
2023-07-15T03:30:53.082Z,24.23
2023-07-15T03:31:54.768Z,24.17
2023-07-15T03:32:58.376Z,24.11
2023-07-15T03:34:00.631Z,24.10
2023-07-15T03:35:02.348Z,24.13
2023-07-15T03:36:05.654Z,24.15
2023-07-15T03:37:07.324Z,24.10
2023-07-15T03:38:09.004Z,24.02
2023-07-15T03:39:10.643Z,24.02
2023-07-15T03:40:13.705Z,24.00
2023-07-15T03:41:15.600Z,23.97
2023-07-15T03:42:17.302Z,23.90
2023-07-15T03:43:18.936Z,23.85
2023-07-15T03:44:20.498Z,23.86
2023-07-15T03:45:22.121Z,23.87
2023-07-15T03:46:24.901Z,23.88
2023-07-15T03:47:26.626Z,23.88
2023-07-15T03:48:28.529Z,23.87
2023-07-15T03:49:30.139Z,23.87
2023-07-15T03:50:31.805Z,23.88
2023-07-15T03:51:35.420Z,23.88
2023-07-15T03:52:37.062Z,23.91
2023-07-15T03:53:38.702Z,23.86
2023-07-15T03:54:40.305Z,23.83
2023-07-15T03:55:41.950Z,23.76
2023-07-15T03:56:43.713Z,23.81
2023-07-15T03:57:45.298Z,23.87
2023-07-15T03:58:47.118Z,23.89
2023-07-15T03:59:48.668Z,23.93
2023-07-15T04:00:50.242Z,24.04
2023-07-15T04:01:51.976Z,24.17
2023-07-15T04:02:55.464Z,24.32
2023-07-15T04:03:57.205Z,24.45
2023-07-15T04:04:58.911Z,24.55
2023-07-15T04:06:00.561Z,24.67
2023-07-15T04:07:02.361Z,24.72
2023-07-15T04:08:04.627Z,24.79
2023-07-15T04:09:06.548Z,24.89
2023-07-15T04:10:08.581Z,24.99
2023-07-15T04:11:10.265Z,25.12
2023-07-15T04:12:12.281Z,25.24
2023-07-15T04:13:14.486Z,25.31
2023-07-15T04:14:18.438Z,25.37
2023-07-15T04:15:20.104Z,25.40
2023-07-15T04:16:21.739Z,25.40
2023-07-15T04:17:23.954Z,25.32
2023-07-15T04:18:26.178Z,25.46
2023-07-15T04:19:27.775Z,25.60
2023-07-15T04:20:29.649Z,25.70
2023-07-15T04:21:31.283Z,25.82
2023-07-15T04:22:32.987Z,25.96
2023-07-15T04:23:34.813Z,26.06
2023-07-15T04:24:36.438Z,26.09
2023-07-15T04:25:39.410Z,26.07
2023-07-15T04:26:42.109Z,26.05
2023-07-15T04:27:43.731Z,26.14
2023-07-15T04:28:45.297Z,26.27
2023-07-15T04:29:46.885Z,26.34
2023-07-15T04:30:48.585Z,26.20
2023-07-15T04:31:50.244Z,26.10
2023-07-15T04:32:51.961Z,26.05
2023-07-15T04:33:55.113Z,26.00
2023-07-15T04:34:56.695Z,26.01
2023-07-15T04:35:58.775Z,25.92
2023-07-15T04:37:00.382Z,25.85
2023-07-15T04:38:01.929Z,25.85
2023-07-15T04:39:03.597Z,25.89
2023-07-15T04:40:06.077Z,25.99
2023-07-15T04:41:07.941Z,26.05
2023-07-15T04:42:09.505Z,26.08
2023-07-15T04:43:11.103Z,25.96
2023-07-15T04:44:12.713Z,25.95
2023-07-15T04:45:14.373Z,25.92
2023-07-15T04:46:16.346Z,25.96
2023-07-15T04:47:18.898Z,26.07
2023-07-15T04:48:20.964Z,26.13
2023-07-15T04:49:23.506Z,26.16
2023-07-15T04:50:25.287Z,26.27
2023-07-15T04:51:27.002Z,26.33
2023-07-15T04:52:28.584Z,26.39
2023-07-15T04:53:30.294Z,26.40
2023-07-15T04:54:31.884Z,26.56
2023-07-15T04:55:33.633Z,26.75
2023-07-15T04:56:36.069Z,26.89
2023-07-15T04:57:37.735Z,27.09
2023-07-15T04:58:42.123Z,27.23
2023-07-15T04:59:44.367Z,27.43
2023-07-15T05:00:47.361Z,27.52
2023-07-15T05:01:49.121Z,27.59
2023-07-15T05:02:51.054Z,27.67
2023-07-15T05:03:52.787Z,27.78
2023-07-15T05:04:54.631Z,27.91
2023-07-15T05:05:56.227Z,27.98
2023-07-15T05:06:58.161Z,28.08
2023-07-15T05:08:14.121Z,28.22
2023-07-15T05:09:15.688Z,28.36
2023-07-15T05:10:17.300Z,28.44
2023-07-15T05:11:20.436Z,28.56
2023-07-15T05:12:22.036Z,28.69
2023-07-15T05:13:25.009Z,28.82
2023-07-15T05:14:26.949Z,28.87
2023-07-15T05:15:29.663Z,28.98
2023-07-15T05:16:31.348Z,29.00
2023-07-15T05:17:33.091Z,29.07
2023-07-15T05:18:34.767Z,29.10
2023-07-15T05:19:36.478Z,29.18
2023-07-15T05:20:38.914Z,29.15
2023-07-15T05:21:40.658Z,29.19
2023-07-15T05:22:42.974Z,29.29
2023-07-15T05:23:44.731Z,29.30
2023-07-15T05:24:46.424Z,29.36
2023-07-15T05:25:48.026Z,29.43
2023-07-15T05:26:49.588Z,29.49
2023-07-15T05:27:51.770Z,29.46
2023-07-15T05:28:53.449Z,29.51
2023-07-15T05:29:54.986Z,29.59
2023-07-15T05:30:58.720Z,29.68
2023-07-15T05:32:00.379Z,29.73
2023-07-15T05:33:02.131Z,29.74
2023-07-15T05:34:03.798Z,29.84
2023-07-15T05:35:06.252Z,29.87
2023-07-15T05:36:09.137Z,29.87
2023-07-15T05:37:10.817Z,29.75
2023-07-15T05:38:12.398Z,29.65
2023-07-15T05:39:15.105Z,29.65
2023-07-15T05:40:16.801Z,29.68
2023-07-15T05:41:18.573Z,29.82
2023-07-15T05:42:21.241Z,29.96
2023-07-15T05:43:22.946Z,30.03
2023-07-15T05:44:24.536Z,30.09
2023-07-15T05:45:26.547Z,30.22
2023-07-15T05:46:28.206Z,30.30
2023-07-15T05:47:29.942Z,30.31
2023-07-15T05:48:35.042Z,30.13
2023-07-15T05:49:37.376Z,29.81
2023-07-15T05:50:39.959Z,29.67
2023-07-15T05:51:41.530Z,29.77
2023-07-15T05:52:43.177Z,29.68
2023-07-15T05:53:44.763Z,29.71
2023-07-15T05:54:46.384Z,29.86
2023-07-15T05:55:48.127Z,29.91
2023-07-15T05:56:49.677Z,29.77
2023-07-15T05:57:51.337Z,29.67
2023-07-15T05:58:53.044Z,29.64
2023-07-15T05:59:54.840Z,29.77
2023-07-15T06:00:56.644Z,29.83
2023-07-15T06:01:58.271Z,29.90
2023-07-15T06:02:59.910Z,30.01
2023-07-15T06:04:01.662Z,30.23
2023-07-15T06:05:03.367Z,30.40
2023-07-15T06:06:05.105Z,30.56
2023-07-15T06:07:06.782Z,30.75
2023-07-15T06:08:09.364Z,30.92
2023-07-15T06:09:11.017Z,31.00
2023-07-15T06:10:12.746Z,31.10
2023-07-15T06:11:14.709Z,31.17
2023-07-15T06:12:16.491Z,31.29
2023-07-15T06:13:18.181Z,31.41
2023-07-15T06:14:19.859Z,31.53
2023-07-15T06:15:21.554Z,31.61
2023-07-15T06:16:23.174Z,31.69
2023-07-15T06:17:25.062Z,31.72
2023-07-15T06:18:26.835Z,31.71
2023-07-15T06:19:28.834Z,31.71
2023-07-15T06:20:30.463Z,31.78
2023-07-15T06:21:32.088Z,31.82
2023-07-15T06:22:33.734Z,31.87
2023-07-15T06:23:35.648Z,31.87
2023-07-15T06:24:37.289Z,31.79
2023-07-15T06:25:39.326Z,31.66
2023-07-15T06:26:40.876Z,31.64
2023-07-15T06:27:42.596Z,31.58
2023-07-15T06:28:44.299Z,31.75
2023-07-15T06:29:48.487Z,31.84
2023-07-15T06:30:51.399Z,31.85
2023-07-15T06:31:53.024Z,31.81
2023-07-15T06:32:54.669Z,31.95
2023-07-15T06:33:56.242Z,32.06
2023-07-15T06:34:57.771Z,31.94
2023-07-15T06:35:59.405Z,31.80
2023-07-15T06:37:01.082Z,31.66
2023-07-15T06:38:02.652Z,31.68
2023-07-15T06:39:04.401Z,31.84
2023-07-15T06:40:06.770Z,32.01
2023-07-15T06:41:08.574Z,32.12
2023-07-15T06:42:10.164Z,32.15
2023-07-15T06:43:11.790Z,32.10
2023-07-15T06:44:13.423Z,32.16
2023-07-15T06:45:15.082Z,32.20
2023-07-15T06:46:16.830Z,32.24
2023-07-15T06:47:18.475Z,32.14
2023-07-15T06:48:20.139Z,32.03
2023-07-15T06:49:21.781Z,31.96
2023-07-15T06:50:23.376Z,32.06
2023-07-15T06:51:25.117Z,32.15
2023-07-15T06:52:26.800Z,32.00
2023-07-15T06:53:28.922Z,32.06
2023-07-15T06:54:31.626Z,32.15
2023-07-15T06:55:33.311Z,32.25
2023-07-15T06:56:34.973Z,32.09
2023-07-15T06:57:36.642Z,32.18
2023-07-15T06:58:38.379Z,32.28
2023-07-15T06:59:40.276Z,32.36
2023-07-15T07:00:42.371Z,32.44
2023-07-15T07:01:44.093Z,32.37
2023-07-15T07:02:46.389Z,32.30
2023-07-15T07:03:48.056Z,32.25
2023-07-15T07:04:49.770Z,32.31
2023-07-15T07:05:51.537Z,32.40
2023-07-15T07:06:53.216Z,32.46
2023-07-15T07:07:55.734Z,32.36
2023-07-15T07:08:57.438Z,32.31
2023-07-15T07:09:59.099Z,32.33
2023-07-15T07:11:00.737Z,32.33
2023-07-15T07:12:02.340Z,32.27
2023-07-15T07:13:05.782Z,32.24
2023-07-15T07:14:07.342Z,32.14
2023-07-15T07:15:09.418Z,32.19
2023-07-15T07:16:11.158Z,32.28
2023-07-15T07:17:12.865Z,32.33
2023-07-15T07:18:14.907Z,32.19
2023-07-15T07:19:16.626Z,32.40
2023-07-15T07:20:18.317Z,32.66
2023-07-15T07:21:19.908Z,32.73
2023-07-15T07:22:21.729Z,32.78
2023-07-15T07:23:23.757Z,32.51
2023-07-15T07:24:25.384Z,32.37
2023-07-15T07:25:27.034Z,32.38
2023-07-15T07:26:28.877Z,32.55
2023-07-15T07:27:30.612Z,32.87
2023-07-15T07:28:45.880Z,33.00
2023-07-15T07:29:47.431Z,33.12
2023-07-15T07:30:49.188Z,33.20
2023-07-15T07:31:53.397Z,33.37
2023-07-15T07:32:55.159Z,33.49
2023-07-15T07:33:56.975Z,33.57
2023-07-15T07:34:59.461Z,33.51
2023-07-15T07:36:01.164Z,33.52
2023-07-15T07:37:04.864Z,33.63
2023-07-15T07:38:06.812Z,33.73
2023-07-15T07:39:08.731Z,33.87
2023-07-15T07:40:13.537Z,33.92
2023-07-15T07:41:17.889Z,33.92
2023-07-15T07:42:20.816Z,33.95
2023-07-15T07:43:22.490Z,34.00
2023-07-15T07:44:24.231Z,33.89
2023-07-15T07:45:25.831Z,33.57
2023-07-15T07:46:28.095Z,33.58
2023-07-15T07:47:29.753Z,33.46
2023-07-15T07:48:31.669Z,33.34
2023-07-15T07:49:35.497Z,33.13
2023-07-15T07:50:37.485Z,33.00
2023-07-15T07:51:39.228Z,33.02
2023-07-15T07:52:40.811Z,32.76
2023-07-15T07:53:42.427Z,32.93
2023-07-15T07:54:44.095Z,33.03
2023-07-15T07:55:47.010Z,32.99
2023-07-15T07:56:48.780Z,33.08
2023-07-15T07:57:50.354Z,33.24
2023-07-15T07:58:58.572Z,33.39
2023-07-15T08:00:00.392Z,33.25
2023-07-15T08:01:02.304Z,33.20
2023-07-15T08:02:04.186Z,33.09
2023-07-15T08:03:05.855Z,32.91
2023-07-15T08:04:07.612Z,32.84
2023-07-15T08:05:09.795Z,32.30
2023-07-15T08:06:13.120Z,31.96
2023-07-15T08:07:15.608Z,31.86
2023-07-15T08:08:17.829Z,31.86
2023-07-15T08:09:19.526Z,31.70
2023-07-15T08:10:21.257Z,31.81
2023-07-15T08:11:23.031Z,31.98
2023-07-15T08:12:24.818Z,31.96
2023-07-15T08:13:26.519Z,32.00
2023-07-15T08:14:28.225Z,32.00
2023-07-15T08:15:30.378Z,32.19
2023-07-15T08:16:37.140Z,32.43
2023-07-15T08:17:38.918Z,32.64
2023-07-15T08:18:40.586Z,32.89
2023-07-15T08:19:42.169Z,33.18
2023-07-15T08:20:43.862Z,33.33
2023-07-15T08:21:45.476Z,33.47
2023-07-15T08:22:47.529Z,33.61
2023-07-15T08:23:49.399Z,33.73
2023-07-15T08:24:50.979Z,33.74
2023-07-15T08:25:54.201Z,33.80
2023-07-15T08:26:55.867Z,33.74
2023-07-15T08:27:57.644Z,33.80
2023-07-15T08:29:02.285Z,33.75
2023-07-15T08:30:05.083Z,33.86
2023-07-15T08:31:06.738Z,34.07
2023-07-15T08:32:08.714Z,34.24
2023-07-15T08:33:11.049Z,34.36
2023-07-15T08:34:12.781Z,34.04
2023-07-15T08:35:14.562Z,33.75
2023-07-15T08:36:16.229Z,33.42
2023-07-15T08:37:17.975Z,33.23
2023-07-15T08:38:19.652Z,33.12
2023-07-15T08:39:21.309Z,33.26
2023-07-15T08:40:25.689Z,33.50
2023-07-15T08:41:27.641Z,33.61
2023-07-15T08:42:31.217Z,33.67
2023-07-15T08:43:33.156Z,33.61
2023-07-15T08:44:34.835Z,33.45
2023-07-15T08:45:37.224Z,33.42
2023-07-15T08:46:39.556Z,33.53
2023-07-15T08:47:44.804Z,33.32
2023-07-15T08:48:46.487Z,33.26
2023-07-15T08:49:50.340Z,33.37
2023-07-15T08:50:56.635Z,33.56
2023-07-15T08:51:58.959Z,33.29
2023-07-15T08:53:02.890Z,33.18
2023-07-15T08:54:07.196Z,33.03
2023-07-15T08:55:09.828Z,33.20
2023-07-15T08:56:12.982Z,33.48
2023-07-15T08:57:19.588Z,33.64
2023-07-15T08:58:21.688Z,33.59
2023-07-15T08:59:24.708Z,33.65
2023-07-15T09:00:27.145Z,33.67
2023-07-15T09:01:28.857Z,33.79
2023-07-15T09:02:30.957Z,33.97
2023-07-15T09:03:32.810Z,34.16
2023-07-15T09:04:35.219Z,34.30
2023-07-15T09:05:36.893Z,34.50
2023-07-15T09:06:38.632Z,34.70
2023-07-15T09:08:10.446Z,34.82
2023-07-15T09:09:14.142Z,34.88
2023-07-15T09:10:15.943Z,34.71
2023-07-15T09:11:17.854Z,34.65
2023-07-15T09:12:23.932Z,34.42
2023-07-15T09:13:30.463Z,34.11
2023-07-15T09:14:32.178Z,33.96
2023-07-15T09:15:34.234Z,34.05
2023-07-15T09:16:40.074Z,34.08
2023-07-15T09:17:50.902Z,34.20
2023-07-15T09:18:52.930Z,34.40
2023-07-15T09:19:54.509Z,34.59
2023-07-15T09:21:17.051Z,34.77
2023-07-15T09:22:20.308Z,34.75
2023-07-15T09:23:22.002Z,34.42
2023-07-15T09:24:23.736Z,34.03
2023-07-15T09:25:26.185Z,33.80
2023-07-15T09:26:29.504Z,33.74
2023-07-15T09:27:31.115Z,33.81
2023-07-15T09:28:32.777Z,33.90
2023-07-15T09:29:34.899Z,34.07
2023-07-15T09:30:40.203Z,34.22
2023-07-15T09:31:41.904Z,34.12
2023-07-15T09:32:43.661Z,34.08
2023-07-15T09:33:45.269Z,34.12
2023-07-15T09:34:51.946Z,34.12
2023-07-15T09:35:53.585Z,34.02
2023-07-15T09:36:55.498Z,34.12
2023-07-15T09:37:57.133Z,34.16
2023-07-15T09:39:13.045Z,34.27
2023-07-15T09:40:14.799Z,34.41
2023-07-15T09:41:20.464Z,34.49
2023-07-15T09:42:22.089Z,34.55
2023-07-15T09:43:23.669Z,34.57
2023-07-15T09:44:39.105Z,34.43
2023-07-15T09:45:42.178Z,34.40
2023-07-15T09:46:44.013Z,34.48
2023-07-15T09:47:45.736Z,34.47
2023-07-15T09:48:52.460Z,34.44
2023-07-15T09:49:54.062Z,34.49
2023-07-15T09:50:56.505Z,34.69
2023-07-15T09:52:02.373Z,34.88
2023-07-15T09:53:05.369Z,35.04
2023-07-15T09:54:07.950Z,35.07
2023-07-15T09:55:09.760Z,34.81
2023-07-15T09:56:12.353Z,34.64
2023-07-15T09:57:15.234Z,34.68
2023-07-15T09:58:24.006Z,34.84
2023-07-15T09:59:29.357Z,34.94
2023-07-15T10:00:35.605Z,35.11
2023-07-15T10:01:41.779Z,35.15
2023-07-15T10:02:45.348Z,35.15
2023-07-15T10:04:17.843Z,35.00
2023-07-15T10:05:20.035Z,34.97
2023-07-15T10:06:22.565Z,34.85
2023-07-15T10:07:24.723Z,34.62
2023-07-15T10:08:26.767Z,34.44
2023-07-15T10:09:29.745Z,34.46
2023-07-15T10:10:31.589Z,34.46
2023-07-15T10:11:34.662Z,34.58
2023-07-15T10:12:37.395Z,34.65
2023-07-15T10:13:39.312Z,34.71
2023-07-15T10:14:42.702Z,34.70
2023-07-15T10:15:45.925Z,34.62
2023-07-15T10:17:11.243Z,34.75
2023-07-15T10:18:19.718Z,34.68
2023-07-15T10:19:42.038Z,34.56
2023-07-15T10:20:47.496Z,34.70
2023-07-15T10:21:59.443Z,34.74
2023-07-15T10:23:03.171Z,34.77
2023-07-15T10:24:13.301Z,34.85
2023-07-15T10:25:16.989Z,34.93
2023-07-15T10:26:22.493Z,34.92
2023-07-15T10:27:31.487Z,34.48
2023-07-15T10:28:38.911Z,34.27
2023-07-15T10:29:41.618Z,34.29
2023-07-15T10:31:13.847Z,34.38
2023-07-15T10:32:20.136Z,34.41
2023-07-15T10:33:25.657Z,34.47
2023-07-15T10:34:36.706Z,34.48
2023-07-15T10:35:41.374Z,34.58
2023-07-15T10:36:51.464Z,34.70
2023-07-15T10:37:53.079Z,34.76
2023-07-15T10:39:13.961Z,34.62
2023-07-15T10:40:56.438Z,34.73
2023-07-15T10:42:08.590Z,34.83
2023-07-15T10:43:10.251Z,34.88
2023-07-15T10:44:23.017Z,34.99
2023-07-15T10:45:42.070Z,35.14
2023-07-15T10:46:48.038Z,35.33
2023-07-15T10:47:49.752Z,35.40
2023-07-15T10:48:51.362Z,35.53
2023-07-15T10:49:53.402Z,35.69
2023-07-15T10:50:58.522Z,35.79
2023-07-15T10:52:00.790Z,35.88
2023-07-15T10:53:22.819Z,35.91
2023-07-15T10:54:29.342Z,36.01
2023-07-15T10:55:31.947Z,36.10
2023-07-15T10:56:33.498Z,36.13
2023-07-15T10:57:52.910Z,36.18
2023-07-15T10:58:58.032Z,36.17
2023-07-15T11:00:09.173Z,36.28
2023-07-15T11:01:14.086Z,36.17
2023-07-15T11:02:16.164Z,36.26
2023-07-15T11:03:20.047Z,36.28
2023-07-15T11:04:22.202Z,36.34
2023-07-15T11:05:23.945Z,36.42
2023-07-15T11:06:26.917Z,36.43
2023-07-15T11:07:29.887Z,36.46
2023-07-15T11:08:32.793Z,36.52
2023-07-15T11:09:38.724Z,36.60
2023-07-15T11:10:40.317Z,36.62
2023-07-15T11:11:41.986Z,36.56
2023-07-15T11:12:43.613Z,36.61
2023-07-15T11:13:46.665Z,36.63
2023-07-15T11:14:48.364Z,36.77
2023-07-15T11:15:49.947Z,36.80
2023-07-15T11:16:52.876Z,36.74
2023-07-15T11:17:54.604Z,36.82
2023-07-15T11:18:56.273Z,36.84
2023-07-15T11:19:57.975Z,36.88
2023-07-15T11:21:01.002Z,36.85
2023-07-15T11:22:08.855Z,36.72
2023-07-15T11:23:10.654Z,36.64
2023-07-15T11:24:13.996Z,36.40
2023-07-15T11:25:15.719Z,36.15
2023-07-15T11:26:17.690Z,35.94
2023-07-15T11:27:19.844Z,35.79
2023-07-15T11:28:21.571Z,35.85
2023-07-15T11:29:25.620Z,35.96
2023-07-15T11:30:38.717Z,36.12
2023-07-15T11:31:45.330Z,36.21
2023-07-15T11:32:56.465Z,36.09
2023-07-15T11:33:59.120Z,36.13
2023-07-15T11:35:11.530Z,36.25
2023-07-15T11:36:13.377Z,36.22
2023-07-15T11:37:15.301Z,36.00
2023-07-15T11:38:28.618Z,35.84
2023-07-15T11:39:30.993Z,35.73
2023-07-15T11:40:34.963Z,35.73
2023-07-15T11:41:40.046Z,35.67
2023-07-15T11:42:41.726Z,35.60
2023-07-15T11:43:43.627Z,35.78
2023-07-15T11:44:45.456Z,35.90
2023-07-15T11:45:47.719Z,36.06
2023-07-15T11:46:49.929Z,36.18
2023-07-15T11:47:55.718Z,36.30
2023-07-15T11:48:59.704Z,36.38
2023-07-15T11:50:01.340Z,36.43
2023-07-15T11:51:10.098Z,36.57
2023-07-15T11:52:20.483Z,36.63
2023-07-15T11:53:32.336Z,36.69
2023-07-15T11:54:34.026Z,36.67
2023-07-15T11:55:38.713Z,36.63
2023-07-15T11:56:42.209Z,36.66
2023-07-15T11:57:44.271Z,36.66
2023-07-15T11:58:45.827Z,36.71
2023-07-15T11:59:50.391Z,36.77
2023-07-15T12:00:52.123Z,36.77
2023-07-15T12:01:54.660Z,36.78
2023-07-15T12:02:57.437Z,36.80
2023-07-15T12:03:59.263Z,36.69
2023-07-15T12:05:01.105Z,36.60
2023-07-15T12:06:03.004Z,36.45
2023-07-15T12:07:05.553Z,36.41
2023-07-15T12:08:13.819Z,36.36
2023-07-15T12:09:18.563Z,36.39
2023-07-15T12:10:21.008Z,36.48
2023-07-15T12:11:22.728Z,36.43
2023-07-15T12:12:24.326Z,36.38
2023-07-15T12:13:27.302Z,36.32
2023-07-15T12:14:32.327Z,36.06
2023-07-15T12:15:33.882Z,36.09
2023-07-15T12:16:37.411Z,36.18
2023-07-15T12:17:39.259Z,36.26
2023-07-15T12:18:40.869Z,36.31
2023-07-15T12:19:43.201Z,36.38
2023-07-15T12:20:44.822Z,36.43
2023-07-15T12:21:46.638Z,36.46
2023-07-15T12:22:48.311Z,36.54
2023-07-15T12:23:51.543Z,36.67
2023-07-15T12:24:53.275Z,36.74
2023-07-15T12:25:54.929Z,36.82
2023-07-15T12:26:56.538Z,36.80
2023-07-15T12:27:58.129Z,36.73
2023-07-15T12:28:59.837Z,36.75
2023-07-15T12:30:04.904Z,36.81
2023-07-15T12:31:07.220Z,36.89
2023-07-15T12:32:09.271Z,36.89
2023-07-15T12:33:11.002Z,36.89
2023-07-15T12:34:12.595Z,36.83
2023-07-15T12:35:16.382Z,36.84
2023-07-15T12:36:19.199Z,36.81
2023-07-15T12:37:21.017Z,36.86
2023-07-15T12:38:22.870Z,36.81
2023-07-15T12:39:24.603Z,36.74
2023-07-15T12:40:26.238Z,36.57
2023-07-15T12:41:27.837Z,36.38
2023-07-15T12:42:29.446Z,36.22
2023-07-15T12:43:31.446Z,36.02
2023-07-15T12:44:32.996Z,35.95
2023-07-15T12:45:34.676Z,35.81
2023-07-15T12:46:36.427Z,35.80
2023-07-15T12:47:38.141Z,35.81
2023-07-15T12:48:40.148Z,35.88
2023-07-15T12:49:41.865Z,35.92
2023-07-15T12:50:43.756Z,35.97
2023-07-15T12:51:45.507Z,35.99
2023-07-15T12:52:47.224Z,36.01
2023-07-15T12:53:48.839Z,36.01
2023-07-15T12:54:50.425Z,36.11
2023-07-15T12:55:55.457Z,36.16
2023-07-15T12:56:57.130Z,36.05
2023-07-15T12:57:58.664Z,36.06
2023-07-15T12:59:00.305Z,36.08
2023-07-15T13:00:02.146Z,35.92
2023-07-15T13:01:03.890Z,35.81
2023-07-15T13:02:06.288Z,35.84
2023-07-15T13:03:08.667Z,35.85
2023-07-15T13:04:10.551Z,35.90
2023-07-15T13:05:12.329Z,35.93
2023-07-15T13:06:14.224Z,35.95
2023-07-15T13:07:17.601Z,35.97
2023-07-15T13:08:19.691Z,35.96
2023-07-15T13:09:21.290Z,35.98
2023-07-15T13:10:23.183Z,35.99
2023-07-15T13:11:24.819Z,35.92
2023-07-15T13:12:26.420Z,35.90
2023-07-15T13:13:28.006Z,35.81
2023-07-15T13:14:29.560Z,35.73
2023-07-15T13:15:31.126Z,35.73
2023-07-15T13:16:32.849Z,35.66
2023-07-15T13:17:34.523Z,35.62
2023-07-15T13:18:36.852Z,35.63
2023-07-15T13:19:38.505Z,35.75
2023-07-15T13:20:40.787Z,35.79
2023-07-15T13:21:42.462Z,35.85
2023-07-15T13:22:45.705Z,35.87
2023-07-15T13:23:47.393Z,35.90
2023-07-15T13:24:51.936Z,35.96
2023-07-15T13:25:53.619Z,35.97
2023-07-15T13:26:55.293Z,35.98
2023-07-15T13:27:57.201Z,36.02
2023-07-15T13:28:59.074Z,36.00
2023-07-15T13:30:01.096Z,35.98
2023-07-15T13:31:02.660Z,36.05
2023-07-15T13:32:04.665Z,36.06
2023-07-15T13:33:07.020Z,36.07